Lima, New York
Current Conditions -  °F | °C
As of 9:54 AM on Saturday 25 Oct 2014 (Local Time) from KROC Reporting Station
Few Clouds Few Clouds  
Wind Chill: 55°   Ceiling: Unl
Heat Index: 55°   Visibility: 10mi
Dew Point: 47°   Wind: 12mph
Humidity: 74%   Direction: 230°SW
Pressure: 29.78"   Gusts: NA
Location:  42.9°N, 77.61°W
Report Text: KROC 251354Z 23010KT 10SM FEW042 FEW220 13/08 A2978 RMK AO2 SLP090 T01280083
Loading
Personal Weather Stations






























Interactive Weather Map
Tropical Storm Tracking
New forecast layout! Learn more

10-Day Weather Forecast

Advertisements
Track Severe Weather on mobile